createdAt,value
2022-12-11T00:00:16.680Z,96596.58
2022-12-11T00:03:04.648Z,96597.14
2022-12-11T00:05:43.920Z,96594.53
2022-12-11T00:08:20.080Z,96592.94
2022-12-11T00:10:49.904Z,96594.56
2022-12-11T00:13:17.946Z,96587.46
2022-12-11T00:15:46.860Z,96580.33
2022-12-11T00:18:19.313Z,96577.73
2022-12-11T00:20:47.216Z,96578.89
2022-12-11T00:23:20.361Z,96573.54
2022-12-11T00:25:48.462Z,96568.77
2022-12-11T00:28:19.853Z,96566.52
2022-12-11T00:30:48.175Z,96562.34
2022-12-11T00:33:16.479Z,96561.19
2022-12-11T00:35:54.989Z,96559.70
2022-12-11T00:38:23.344Z,96559.17
2022-12-11T00:40:59.269Z,96551.77
2022-12-11T00:43:27.206Z,96546.85
2022-12-11T00:45:55.203Z,96550.45
2022-12-11T00:48:26.632Z,96544.92
2022-12-11T00:50:54.519Z,96544.36
2022-12-11T00:53:22.468Z,96547.63
2022-12-11T00:55:57.704Z,96541.17
2022-12-11T00:58:25.726Z,96542.86
2022-12-11T01:00:54.331Z,96541.65
2022-12-11T01:03:23.239Z,96541.90
2022-12-11T01:05:57.313Z,96544.80
2022-12-11T01:08:25.264Z,96544.84
2022-12-11T01:11:08.011Z,96544.43
2022-12-11T01:13:39.670Z,96542.31
2022-12-11T01:16:16.105Z,96543.88
2022-12-11T01:18:46.508Z,96546.06
2022-12-11T01:21:15.043Z,96547.23
2022-12-11T01:23:49.638Z,96547.65
2022-12-11T01:26:17.932Z,96547.17
2022-12-11T01:28:48.971Z,96547.86
2022-12-11T01:31:20.048Z,96545.26
2022-12-11T01:33:48.756Z,96538.97
2022-12-11T01:36:21.899Z,96534.00
2022-12-11T01:38:52.790Z,96534.26
2022-12-11T01:41:21.161Z,96526.20
2022-12-11T01:44:08.579Z,96519.43
2022-12-11T01:46:38.963Z,96515.20
2022-12-11T01:49:12.951Z,96519.28
2022-12-11T01:51:56.525Z,96518.73
2022-12-11T01:54:31.852Z,96516.73
2022-12-11T01:57:07.103Z,96520.89
2022-12-11T01:59:38.346Z,96517.88
2022-12-11T02:02:18.929Z,96515.14
2022-12-11T02:04:48.618Z,96514.29
2022-12-11T02:07:16.924Z,96519.50
2022-12-11T02:09:47.754Z,96515.27
2022-12-11T02:12:36.487Z,96515.73
2022-12-11T02:15:21.121Z,96515.53
2022-12-11T02:18:36.163Z,96517.96
2022-12-11T02:21:20.793Z,96519.80
2022-12-11T02:24:18.155Z,96522.34
2022-12-11T02:27:00.935Z,96522.49
2022-12-11T02:29:39.519Z,96520.76
2022-12-11T02:32:15.080Z,96518.96
2022-12-11T02:34:50.548Z,96514.13
2022-12-11T02:37:26.500Z,96515.46
2022-12-11T02:39:57.552Z,96516.02
2022-12-11T02:42:31.430Z,96507.35
2022-12-11T02:45:04.318Z,96505.92
2022-12-11T02:47:35.269Z,96501.35
2022-12-11T02:50:10.905Z,96498.80
2022-12-11T02:52:41.304Z,96504.94
2022-12-11T02:55:20.043Z,96498.95
2022-12-11T02:58:20.361Z,96498.69
2022-12-11T03:00:51.258Z,96496.58
2022-12-11T03:03:20.600Z,96494.04
2022-12-11T03:05:48.554Z,96491.30
2022-12-11T03:08:18.666Z,96496.05
2022-12-11T03:10:46.912Z,96488.81
2022-12-11T03:13:19.485Z,96481.83
2022-12-11T03:15:56.493Z,96485.20
2022-12-11T03:18:27.394Z,96487.27
2022-12-11T03:21:06.139Z,96492.38
2022-12-11T03:23:42.854Z,96495.81
2022-12-11T03:26:13.887Z,96494.60
2022-12-11T03:28:49.691Z,96491.05
2022-12-11T03:31:46.551Z,96490.12
2022-12-11T03:34:30.490Z,96483.98
2022-12-11T03:37:00.242Z,96483.92
2022-12-11T03:39:36.346Z,96484.38
2022-12-11T03:42:08.405Z,96474.83
2022-12-11T03:44:36.948Z,96478.83
2022-12-11T03:47:08.374Z,96472.39
2022-12-11T03:49:42.202Z,96472.70
2022-12-11T03:52:12.951Z,96469.22
2022-12-11T03:54:43.965Z,96468.47
2022-12-11T03:57:16.341Z,96466.15
2022-12-11T03:59:44.377Z,96466.16
2022-12-11T04:02:12.395Z,96465.11
2022-12-11T04:04:41.752Z,96466.90
2022-12-11T04:07:09.816Z,96468.10
2022-12-11T04:09:37.758Z,96462.96
2022-12-11T04:12:05.804Z,96465.65
2022-12-11T04:14:52.454Z,96462.52
2022-12-11T04:17:38.880Z,96457.71
2022-12-11T04:20:25.987Z,96458.65
2022-12-11T04:24:07.720Z,96459.33
2022-12-11T04:26:35.653Z,96461.48
2022-12-11T04:29:03.533Z,96462.74
2022-12-11T04:31:31.485Z,96460.27
2022-12-11T04:33:59.392Z,96459.79
2022-12-11T04:36:27.304Z,96461.63
2022-12-11T04:38:55.626Z,96457.86
2022-12-11T04:41:23.624Z,96462.60
2022-12-11T04:43:51.974Z,96459.48
2022-12-11T04:46:22.154Z,96459.48
2022-12-11T04:48:56.776Z,96453.15
2022-12-11T04:51:25.748Z,96450.19
2022-12-11T04:53:53.787Z,96452.83
2022-12-11T04:56:21.972Z,96452.09
2022-12-11T04:58:50.312Z,96450.89
2022-12-11T05:01:21.430Z,96448.67
2022-12-11T05:03:50.197Z,96444.75
2022-12-11T05:06:18.127Z,96444.65
2022-12-11T05:08:46.061Z,96437.73
2022-12-11T05:11:15.499Z,96440.25
2022-12-11T05:13:44.485Z,96440.09
2022-12-11T05:16:15.899Z,96446.22
2022-12-11T05:18:44.153Z,96448.00
2022-12-11T05:21:14.571Z,96442.58
2022-12-11T05:23:42.998Z,96433.39
2022-12-11T05:26:14.511Z,96435.29
2022-12-11T05:28:43.455Z,96431.70
2022-12-11T05:32:06.992Z,96432.65
2022-12-11T05:34:34.958Z,96427.67
2022-12-11T05:37:02.897Z,96429.75
2022-12-11T05:39:30.845Z,96428.36
2022-12-11T05:41:59.228Z,96432.29
2022-12-11T05:44:27.238Z,96429.84
2022-12-11T05:46:55.184Z,96428.16
2022-12-11T05:49:28.979Z,96424.56
2022-12-11T05:51:58.712Z,96423.33
2022-12-11T05:54:26.581Z,96427.70
2022-12-11T05:56:54.512Z,96427.32
2022-12-11T05:59:22.413Z,96417.39
2022-12-11T06:01:50.529Z,96418.42
2022-12-11T06:04:18.516Z,96417.61
2022-12-11T06:06:46.411Z,96417.95
2022-12-11T06:09:16.176Z,96413.38
2022-12-11T06:11:44.117Z,96415.58
2022-12-11T06:14:12.088Z,96410.09
2022-12-11T06:16:40.077Z,96405.44
2022-12-11T06:19:14.432Z,96407.80
2022-12-11T06:21:42.464Z,96411.69
2022-12-11T06:24:11.225Z,96415.91
2022-12-11T06:26:39.286Z,96419.50
2022-12-11T06:29:11.005Z,96422.44
2022-12-11T06:31:44.006Z,96424.42
2022-12-11T06:34:13.188Z,96424.33
2022-12-11T06:36:41.241Z,96426.21
2022-12-11T06:39:09.574Z,96429.48
2022-12-11T06:41:37.437Z,96426.89
2022-12-11T06:44:05.368Z,96428.15
2022-12-11T06:46:33.278Z,96429.64
2022-12-11T06:49:01.209Z,96435.84
2022-12-11T06:51:29.290Z,96441.69
2022-12-11T06:53:57.547Z,96445.85
2022-12-11T06:56:25.584Z,96445.60
2022-12-11T06:58:53.647Z,96442.30
2022-12-11T07:01:27.212Z,96441.40
2022-12-11T07:03:57.241Z,96437.92
2022-12-11T07:06:26.339Z,96434.05
2022-12-11T07:08:54.615Z,96436.50
2022-12-11T07:11:22.951Z,96437.08
2022-12-11T07:13:51.339Z,96434.41
2022-12-11T07:16:19.490Z,96430.50
2022-12-11T07:18:49.725Z,96432.26
2022-12-11T07:21:18.708Z,96439.23
2022-12-11T07:23:47.258Z,96440.80
2022-12-11T07:26:18.009Z,96449.19
2022-12-11T07:28:46.044Z,96456.39
2022-12-11T07:31:22.047Z,96454.61
2022-12-11T07:33:58.143Z,96454.84
2022-12-11T07:36:27.321Z,96452.70
2022-12-11T07:38:55.910Z,96449.34
2022-12-11T07:41:24.123Z,96453.66
2022-12-11T07:43:56.022Z,96457.98
2022-12-11T07:46:26.750Z,96467.98
2022-12-11T07:48:55.078Z,96461.16
2022-12-11T07:51:26.531Z,96461.68
2022-12-11T07:53:57.171Z,96459.77
2022-12-11T07:56:26.938Z,96456.85
2022-12-11T07:58:55.050Z,96453.80
2022-12-11T08:01:26.228Z,96455.08
2022-12-11T08:03:55.560Z,96456.52
2022-12-11T08:06:29.746Z,96454.77
2022-12-11T08:09:00.035Z,96454.73
2022-12-11T08:11:28.245Z,96456.27
2022-12-11T08:13:56.543Z,96455.42
2022-12-11T08:16:24.508Z,96458.06
2022-12-11T08:18:52.769Z,96461.08
2022-12-11T08:21:21.843Z,96458.84
2022-12-11T08:23:51.152Z,96457.13
2022-12-11T08:26:22.102Z,96455.16
2022-12-11T08:28:50.329Z,96455.19
2022-12-11T08:31:19.148Z,96457.61
2022-12-11T08:33:48.380Z,96453.70
2022-12-11T08:36:18.677Z,96457.93
2022-12-11T08:38:47.314Z,96465.55
2022-12-11T08:41:16.316Z,96453.73
2022-12-11T08:43:45.074Z,96448.64
2022-12-11T08:46:13.735Z,96453.58
2022-12-11T08:48:42.917Z,96453.78
2022-12-11T08:51:14.248Z,96449.67
2022-12-11T08:53:42.833Z,96453.09
2022-12-11T08:56:16.562Z,96458.80
2022-12-11T08:58:45.978Z,96457.30
2022-12-11T09:01:19.492Z,96462.41
2022-12-11T09:03:48.240Z,96455.89
2022-12-11T09:06:19.108Z,96456.48
2022-12-11T09:08:52.144Z,96459.64
2022-12-11T09:11:24.113Z,96460.47
2022-12-11T09:13:52.629Z,96457.02
2022-12-11T09:16:23.100Z,96457.65
2022-12-11T09:18:53.641Z,96454.23
2022-12-11T09:21:27.593Z,96448.84
2022-12-11T09:23:58.736Z,96457.58
2022-12-11T09:26:28.350Z,96456.66
2022-12-11T09:28:56.761Z,96465.33
2022-12-11T09:31:30.564Z,96462.88
2022-12-11T09:34:01.425Z,96453.27
2022-12-11T09:36:29.987Z,96444.67
2022-12-11T09:39:03.201Z,96440.10
2022-12-11T09:41:55.639Z,96435.42
2022-12-11T09:44:53.978Z,96431.91
2022-12-11T09:47:38.492Z,96432.20
2022-12-11T09:50:09.440Z,96435.05
2022-12-11T09:52:40.032Z,96439.96
2022-12-11T09:55:35.250Z,96440.66
2022-12-11T09:58:08.341Z,96450.09
2022-12-11T10:00:41.594Z,96446.78
2022-12-11T10:03:30.755Z,96448.22
2022-12-11T10:06:07.463Z,96443.27
2022-12-11T10:08:50.629Z,96440.86
2022-12-11T10:11:42.943Z,96449.08
2022-12-11T10:14:22.532Z,96450.00
2022-12-11T10:17:04.248Z,96449.83
2022-12-11T10:19:33.207Z,96444.03
2022-12-11T10:22:02.378Z,96445.59
2022-12-11T10:27:38.264Z,96441.47
2022-12-11T10:30:37.123Z,96444.51
2022-12-11T10:33:11.109Z,96453.84
2022-12-11T10:35:54.898Z,96447.92
2022-12-11T10:38:40.708Z,96448.39
2022-12-11T10:41:14.995Z,96444.56
2022-12-11T10:43:46.455Z,96447.14
2022-12-11T10:46:23.293Z,96444.20
2022-12-11T10:48:55.420Z,96443.70
2022-12-11T10:51:33.999Z,96439.38
2022-12-11T10:54:38.205Z,96438.78
2022-12-11T10:57:09.004Z,96433.23
2022-12-11T10:59:42.980Z,96432.15
2022-12-11T11:02:44.398Z,96430.46
2022-12-11T11:05:28.749Z,96423.30
2022-12-11T11:08:15.397Z,96427.77
2022-12-11T11:11:24.744Z,96429.55
2022-12-11T11:14:24.297Z,96429.10
2022-12-11T11:16:56.536Z,96426.84
2022-12-11T11:19:29.784Z,96421.16
2022-12-11T11:22:19.594Z,96413.96
2022-12-11T11:24:56.262Z,96412.83
2022-12-11T11:28:02.575Z,96410.92
2022-12-11T11:30:37.146Z,96405.64
2022-12-11T11:33:11.140Z,96409.63
2022-12-11T11:35:45.509Z,96414.02
2022-12-11T11:38:20.028Z,96415.11
2022-12-11T11:41:25.807Z,96415.23
2022-12-11T11:43:58.039Z,96414.41
2022-12-11T11:46:38.273Z,96415.69
2022-12-11T11:49:21.353Z,96415.73
2022-12-11T11:52:01.219Z,96413.59
2022-12-11T11:55:16.212Z,96411.39
2022-12-11T11:57:57.128Z,96415.31
2022-12-11T12:00:33.347Z,96412.33
2022-12-11T12:03:10.913Z,96410.65
2022-12-11T12:05:48.678Z,96414.57
2022-12-11T12:08:55.187Z,96417.89
2022-12-11T12:11:41.816Z,96422.61
2022-12-11T12:14:51.146Z,96422.41
2022-12-11T12:17:43.555Z,96414.89
2022-12-11T12:20:29.715Z,96414.05
2022-12-11T12:23:02.070Z,96406.02
2022-12-11T12:25:41.249Z,96403.11
2022-12-11T12:28:34.089Z,96407.88
2022-12-11T12:31:28.319Z,96413.13
2022-12-11T12:34:14.424Z,96413.02
2022-12-11T12:37:07.493Z,96417.33
2022-12-11T12:39:57.316Z,96417.98
2022-12-11T12:42:43.131Z,96410.94
2022-12-11T12:45:14.449Z,96410.34
2022-12-11T12:47:46.652Z,96413.10
2022-12-11T12:50:20.519Z,96415.13
2022-12-11T12:52:51.437Z,96418.27
2022-12-11T12:55:25.214Z,96421.70
2022-12-11T12:58:00.489Z,96423.34
2022-12-11T13:00:32.147Z,96429.32
2022-12-11T13:03:13.462Z,96433.12
2022-12-11T13:05:45.864Z,96436.02
2022-12-11T13:08:27.792Z,96435.17
2022-12-11T13:11:02.656Z,96440.00
2022-12-11T13:13:43.201Z,96446.19
2022-12-11T13:16:17.396Z,96448.81
2022-12-11T13:18:48.307Z,96453.68
2022-12-11T13:21:27.802Z,96455.52
2022-12-11T13:24:12.644Z,96447.66
2022-12-11T13:26:40.576Z,96448.55
2022-12-11T13:29:35.463Z,96452.63
2022-12-11T13:32:20.489Z,96458.72
2022-12-11T13:34:56.702Z,96460.59
2022-12-11T13:37:34.839Z,96464.01
2022-12-11T13:40:08.384Z,96465.64
2022-12-11T13:42:44.489Z,96468.96
2022-12-11T13:45:44.624Z,96470.11
2022-12-11T13:48:21.997Z,96468.15
2022-12-11T13:50:54.708Z,96466.48
2022-12-11T13:53:23.713Z,96469.23
2022-12-11T13:56:04.186Z,96466.19
2022-12-11T13:58:38.343Z,96467.38
2022-12-11T14:01:11.367Z,96468.55
2022-12-11T14:03:43.429Z,96471.33
2022-12-11T14:06:18.228Z,96470.98
2022-12-11T14:08:51.900Z,96471.96
2022-12-11T14:11:30.394Z,96477.81
2022-12-11T14:14:01.864Z,96478.55
2022-12-11T14:16:30.621Z,96480.98
2022-12-11T14:19:08.433Z,96481.62
2022-12-11T14:21:36.963Z,96477.83
2022-12-11T14:24:13.536Z,96478.85
2022-12-11T14:26:50.987Z,96479.31
2022-12-11T14:29:26.839Z,96482.00
2022-12-11T14:32:07.760Z,96470.79
2022-12-11T14:34:44.398Z,96473.61
2022-12-11T14:37:16.020Z,96473.32
2022-12-11T14:40:17.148Z,96482.56
2022-12-11T14:42:51.740Z,96484.57
2022-12-11T14:45:31.229Z,96479.08
2022-12-11T14:48:03.258Z,96480.17
2022-12-11T14:50:39.411Z,96476.13
2022-12-11T14:53:18.454Z,96473.20
2022-12-11T14:55:49.176Z,96484.95
2022-12-11T14:58:36.654Z,96484.56
2022-12-11T15:01:21.395Z,96486.04
2022-12-11T15:04:28.247Z,96483.41
2022-12-11T15:06:56.323Z,96485.55
2022-12-11T15:09:28.918Z,96489.52
2022-12-11T15:12:00.133Z,96493.63
2022-12-11T15:14:28.183Z,96496.44
2022-12-11T15:17:00.166Z,96491.09
2022-12-11T15:19:35.238Z,96487.86
2022-12-11T15:22:06.766Z,96492.49
2022-12-11T15:24:41.767Z,96499.80
2022-12-11T15:27:26.793Z,96503.82
2022-12-11T15:29:54.767Z,96508.03
2022-12-11T15:32:25.303Z,96505.15
2022-12-11T15:34:55.862Z,96507.95
2022-12-11T15:37:32.786Z,96511.53
2022-12-11T15:40:02.685Z,96509.15
2022-12-11T15:42:39.743Z,96511.29
2022-12-11T15:45:16.054Z,96513.43
2022-12-11T15:47:44.770Z,96513.80
2022-12-11T15:50:30.659Z,96518.40
2022-12-11T15:53:00.716Z,96523.03
2022-12-11T15:55:38.135Z,96529.93
2022-12-11T15:58:11.492Z,96529.67
2022-12-11T16:00:39.456Z,96530.12
2022-12-11T16:03:16.756Z,96526.89
2022-12-11T16:05:44.927Z,96527.23
2022-12-11T16:08:15.666Z,96526.48
2022-12-11T16:10:45.491Z,96530.77
2022-12-11T16:13:14.951Z,96530.52
2022-12-11T16:15:45.185Z,96524.55
2022-12-11T16:18:19.457Z,96527.17
2022-12-11T16:20:48.253Z,96531.27
2022-12-11T16:23:22.909Z,96531.60
2022-12-11T16:25:53.756Z,96533.38
2022-12-11T16:28:21.993Z,96532.64
2022-12-11T16:30:50.110Z,96534.40
2022-12-11T16:33:20.992Z,96530.54
2022-12-11T16:35:48.989Z,96530.60
2022-12-11T16:38:16.939Z,96534.03
2022-12-11T16:40:47.962Z,96533.01
2022-12-11T16:43:15.946Z,96536.52
2022-12-11T16:45:45.474Z,96541.25
2022-12-11T16:48:13.406Z,96544.11
2022-12-11T16:50:41.460Z,96544.51
2022-12-11T16:53:14.661Z,96546.49
2022-12-11T16:55:45.036Z,96543.66
2022-12-11T16:58:18.984Z,96542.92
2022-12-11T17:00:48.278Z,96550.45
2022-12-11T17:03:20.017Z,96548.84
2022-12-11T17:05:47.904Z,96542.98
2022-12-11T17:08:17.354Z,96546.55
2022-12-11T17:10:45.720Z,96551.02
2022-12-11T17:13:18.048Z,96550.95
2022-12-11T17:15:46.158Z,96551.66
2022-12-11T17:18:16.382Z,96544.61
2022-12-11T17:20:45.169Z,96548.55
2022-12-11T17:23:15.936Z,96546.04
2022-12-11T17:25:45.592Z,96549.56
2022-12-11T17:28:15.953Z,96543.17
2022-12-11T17:30:45.647Z,96538.39
2022-12-11T17:33:16.535Z,96536.35
2022-12-11T17:35:44.700Z,96537.71
2022-12-11T17:38:14.916Z,96536.84
2022-12-11T17:40:44.152Z,96543.08
2022-12-11T17:43:13.874Z,96540.95
2022-12-11T17:45:43.168Z,96543.02
2022-12-11T17:48:15.007Z,96547.83
2022-12-11T17:50:45.360Z,96548.72
2022-12-11T17:53:16.315Z,96548.09
2022-12-11T17:55:48.427Z,96552.80
2022-12-11T17:58:22.018Z,96554.06
2022-12-11T18:00:55.888Z,96566.45
2022-12-11T18:03:25.555Z,96567.76
2022-12-11T18:05:56.484Z,96569.42
2022-12-11T18:08:30.136Z,96573.11
2022-12-11T18:11:06.433Z,96577.23
2022-12-11T18:13:35.064Z,96577.61
2022-12-11T18:16:09.172Z,96578.30
2022-12-11T18:18:37.284Z,96576.40
2022-12-11T18:21:06.456Z,96575.07
2022-12-11T18:23:34.815Z,96573.02
2022-12-11T18:26:02.798Z,96573.41
2022-12-11T18:28:32.445Z,96566.15
2022-12-11T18:31:03.403Z,96564.02
2022-12-11T18:33:32.247Z,96568.74
2022-12-11T18:36:00.225Z,96566.38
2022-12-11T18:38:31.144Z,96565.96
2022-12-11T18:41:05.636Z,96558.20
2022-12-11T18:43:33.506Z,96558.39
2022-12-11T18:46:15.244Z,96557.89
2022-12-11T18:48:46.879Z,96558.27
2022-12-11T18:51:18.622Z,96558.85
2022-12-11T18:53:46.672Z,96554.27
2022-12-11T18:56:16.800Z,96552.58
2022-12-11T18:58:46.160Z,96547.27
2022-12-11T19:01:26.618Z,96550.09
2022-12-11T19:04:03.263Z,96551.66
2022-12-11T19:06:35.767Z,96561.66
2022-12-11T19:09:08.929Z,96561.14
2022-12-11T19:11:40.307Z,96560.23
2022-12-11T19:14:09.499Z,96563.91
2022-12-11T19:16:41.957Z,96561.19
2022-12-11T19:19:13.601Z,96566.27
2022-12-11T19:21:42.765Z,96565.77
2022-12-11T19:24:22.110Z,96561.75
2022-12-11T19:26:50.131Z,96560.04
2022-12-11T19:29:28.478Z,96561.55
2022-12-11T19:31:56.563Z,96559.23
2022-12-11T19:34:26.648Z,96557.59
2022-12-11T19:36:54.875Z,96556.70
2022-12-11T19:39:24.367Z,96556.32
2022-12-11T19:41:52.475Z,96558.11
2022-12-11T19:44:20.482Z,96561.48
2022-12-11T19:46:48.448Z,96559.14
2022-12-11T19:49:18.460Z,96553.95
2022-12-11T19:51:46.407Z,96552.97
2022-12-11T19:54:16.778Z,96551.11
2022-12-11T19:56:45.465Z,96550.18
2022-12-11T19:59:16.729Z,96545.23
2022-12-11T20:01:48.064Z,96542.58
2022-12-11T20:04:17.703Z,96544.88
2022-12-11T20:06:48.734Z,96546.86
2022-12-11T20:09:17.067Z,96549.91
2022-12-11T20:11:47.619Z,96551.17
2022-12-11T20:14:20.177Z,96559.81
2022-12-11T20:17:11.036Z,96562.52
2022-12-11T20:19:41.961Z,96555.79
2022-12-11T20:22:12.704Z,96554.75
2022-12-11T20:24:40.752Z,96555.16
2022-12-11T20:27:12.513Z,96558.61
2022-12-11T20:29:40.571Z,96568.84
2022-12-11T20:32:11.538Z,96578.08
2022-12-11T20:34:39.723Z,96580.77
2022-12-11T20:37:09.198Z,96582.00
2022-12-11T20:39:37.323Z,96579.92
2022-12-11T20:42:06.085Z,96582.20
2022-12-11T20:44:35.934Z,96573.91
2022-12-11T20:47:04.027Z,96575.76
2022-12-11T20:49:32.008Z,96572.50
2022-12-11T20:51:59.931Z,96568.58
2022-12-11T20:54:28.432Z,96563.55
2022-12-11T20:56:56.771Z,96560.27
2022-12-11T20:59:26.210Z,96566.77
2022-12-11T21:01:54.260Z,96560.27
2022-12-11T21:04:22.791Z,96560.80
2022-12-11T21:06:55.268Z,96567.17
2022-12-11T21:09:25.429Z,96570.55
2022-12-11T21:11:56.592Z,96571.48
2022-12-11T21:14:25.853Z,96574.17
2022-12-11T21:16:54.020Z,96576.86
2022-12-11T21:19:30.416Z,96573.54
2022-12-11T21:22:02.732Z,96572.16
2022-12-11T21:24:31.524Z,96573.45
2022-12-11T21:26:59.728Z,96564.12
2022-12-11T21:29:52.993Z,96567.63
2022-12-11T21:32:23.744Z,96569.39
2022-12-11T21:34:51.853Z,96559.95
2022-12-11T21:37:22.371Z,96560.80
2022-12-11T21:39:50.573Z,96563.47
2022-12-11T21:42:20.493Z,96563.16
2022-12-11T21:47:36.546Z,96574.61
2022-12-11T21:50:04.771Z,96577.09
2022-12-11T21:52:34.831Z,96579.67
2022-12-11T21:55:03.543Z,96577.23
2022-12-11T21:57:31.550Z,96576.02
2022-12-11T22:00:02.637Z,96574.51
2022-12-11T22:02:42.062Z,96577.33
2022-12-11T22:05:10.520Z,96577.94
2022-12-11T22:07:41.307Z,96576.60
2022-12-11T22:10:09.770Z,96573.40
2022-12-11T22:12:37.756Z,96573.67
2022-12-11T22:15:09.490Z,96577.43
2022-12-11T22:17:39.797Z,96575.10
2022-12-11T22:20:08.180Z,96576.27
2022-12-11T22:22:36.074Z,96581.41
2022-12-11T22:25:07.064Z,96577.34
2022-12-11T22:27:35.053Z,96577.02
2022-12-11T22:30:03.364Z,96574.41
2022-12-11T22:32:31.301Z,96574.95
2022-12-11T22:34:59.245Z,96572.89
2022-12-11T22:37:27.171Z,96570.64
2022-12-11T22:39:55.196Z,96575.73
2022-12-11T22:42:23.285Z,96574.95
2022-12-11T22:44:51.300Z,96571.89
2022-12-11T22:47:19.326Z,96567.90
2022-12-11T22:49:47.252Z,96566.35
2022-12-11T22:52:15.182Z,96566.02
2022-12-11T22:54:43.180Z,96561.21
2022-12-11T22:57:11.148Z,96561.80
2022-12-11T22:59:39.098Z,96556.11
2022-12-11T23:02:07.189Z,96551.20
2022-12-11T23:04:35.160Z,96550.07
2022-12-11T23:07:03.859Z,96550.20
2022-12-11T23:09:32.107Z,96555.60
2022-12-11T23:12:00.171Z,96559.95
2022-12-11T23:14:28.324Z,96560.38
2022-12-11T23:16:56.388Z,96556.42
2022-12-11T23:19:25.702Z,96555.79
2022-12-11T23:21:53.839Z,96562.15
2022-12-11T23:24:22.512Z,96561.13
2022-12-11T23:26:50.531Z,96567.54
2022-12-11T23:29:18.543Z,96565.46
2022-12-11T23:31:46.478Z,96563.34
2022-12-11T23:34:14.375Z,96565.54
2022-12-11T23:36:42.340Z,96562.98
2022-12-11T23:39:10.276Z,96562.34
2022-12-11T23:41:38.361Z,96557.25
2022-12-11T23:44:06.284Z,96560.60
2022-12-11T23:46:34.573Z,96555.45
2022-12-11T23:49:02.950Z,96554.56
2022-12-11T23:51:31.088Z,96553.59
2022-12-11T23:53:59.041Z,96555.17
2022-12-11T23:56:29.301Z,96550.60
2022-12-11T23:58:57.458Z,96553.41
